^^
Station Historical Data
 
Daily Summary for May 23, 2018 Units:  Both    English   Metric
« Previous Day
Next Day »
Daily Weekly Monthly Yearly Custom
  Current: High: Low: Average:
Temperature: 70.0 °F /  21.1 °C TemperatureF °F /  -17.8 °C 51.1 °F /  10.6 °C 65 °F /  18.3 °C
Dew Point: 41.0 °F /  5 °C DewpointF °F /  -17.8 °C 36.3 °F /  2.4 °C 40.3 °F /  4.6 °C
Humidity: 35% Humidity% 33% 40%
Wind Speed: 2.9mph /  4.7km/h WindSpeedMPHmph /  0km/h - 2.6mph /  4.2km/h
Wind Gust: 3.0mph /  4.8km/h WindSpeedGustMPHmph /  0km/h - -
WindENE - - ESE
Pressure: 29.95 in /  1014.1 hPa PressureIn in /  0 hPa 29.94 in /  1013.8 hPa -
Precipitation: 0.00 in /  0 mm      
Historical Graphs
 
 
Tabular Data for May 23, 2018
Time Temperature Dew Point Pressure Wind Wind Speed Wind Gust Humidity Rainfall Rate (Hourly) solar Conditions
TemperatureF °F /  -17.8 °C DewpointF °F /  -17.8 °C PressureInin /  0hPa Calm     Humidity% HourlyPrecipInin /  0mm SoftwareType W/m2 Conditions
08:17 51.1 °F /  10.6 °C 36.3 °F /  2.4 °C 30.02in /  1016.5hPa Calm     57% 0.00in /  0mm meteobridge W/m2
08:24 52.3 °F /  11.3 °C 37.9 °F /  3.3 °C 30.02in /  1016.5hPa Calm     58% 0.00in /  0mm meteobridge W/m2
08:30 53.4 °F /  11.9 °C 38.1 °F /  3.4 °C 30.03in /  1016.8hPa Calm     56% 0.00in /  0mm meteobridge W/m2
08:36 54.5 °F /  12.5 °C 38.1 °F /  3.4 °C 30.03in /  1016.8hPa Calm     54% 0.00in /  0mm meteobridge W/m2
08:42 55.0 °F /  12.8 °C 38.3 °F /  3.5 °C 30.03in /  1016.8hPa Calm     53% 0.00in /  0mm meteobridge W/m2
08:48 55.6 °F /  13.1 °C 37.8 °F /  3.2 °C 30.04in /  1017.2hPa Calm     51% 0.00in /  0mm meteobridge W/m2
08:54 56.1 °F /  13.4 °C 38.7 °F /  3.7 °C 30.04in /  1017.2hPa Calm     52% 0.00in /  0mm meteobridge W/m2
09:00 57.2 °F /  14 °C 39.2 °F /  4 °C 30.05in /  1017.5hPa Calm     51% 0.00in /  0mm meteobridge W/m2
09:06 58.1 °F /  14.5 °C 39.0 °F /  3.9 °C 30.05in /  1017.5hPa Calm     49% 0.00in /  0mm meteobridge W/m2
09:13 58.6 °F /  14.8 °C 40.6 °F /  4.8 °C 30.05in /  1017.5hPa Calm     51% 0.00in /  0mm meteobridge W/m2
09:19 60.1 °F /  15.6 °C 40.8 °F /  4.9 °C 30.05in /  1017.5hPa NNW 0.9mph /  1.4km/h 2.0mph /  3.2km/h 49% 0.00in /  0mm meteobridge W/m2
09:25 61.2 °F /  16.2 °C 39.7 °F /  4.3 °C 30.06in /  1017.8hPa NNW 0.9mph /  1.4km/h 4.0mph /  6.4km/h 45% 0.00in /  0mm meteobridge W/m2
09:31 61.2 °F /  16.2 °C 39.7 °F /  4.3 °C 30.06in /  1017.8hPa North 0.9mph /  1.4km/h 4.0mph /  6.4km/h 45% 0.00in /  0mm meteobridge W/m2
09:37 61.5 °F /  16.4 °C 39.9 °F /  4.4 °C 30.06in /  1017.8hPa North 2.0mph /  3.2km/h 4.0mph /  6.4km/h 45% 0.00in /  0mm meteobridge W/m2
09:43 62.2 °F /  16.8 °C 40.6 °F /  4.8 °C 30.06in /  1017.8hPa North 4.0mph /  6.4km/h 4.0mph /  6.4km/h 45% 0.00in /  0mm meteobridge W/m2
09:50 62.6 °F /  17 °C 40.5 °F /  4.7 °C 30.06in /  1017.8hPa NE 4.0mph /  6.4km/h 5.0mph /  8km/h 44% 0.00in /  0mm meteobridge W/m2
09:56 62.2 °F /  16.8 °C 39.4 °F /  4.1 °C 30.06in /  1017.8hPa North 2.9mph /  4.7km/h 7.0mph /  11.3km/h 43% 0.00in /  0mm meteobridge W/m2
10:02 62.2 °F /  16.8 °C 40.1 °F /  4.5 °C 30.06in /  1017.8hPa NNE 2.9mph /  4.7km/h 7.0mph /  11.3km/h 44% 0.00in /  0mm meteobridge W/m2
10:08 62.2 °F /  16.8 °C 40.1 °F /  4.5 °C 30.06in /  1017.8hPa NNW 2.0mph /  3.2km/h 6.0mph /  9.7km/h 44% 0.00in /  0mm meteobridge W/m2
10:14 62.4 °F /  16.9 °C 40.3 °F /  4.6 °C 30.06in /  1017.8hPa NNE 0.9mph /  1.4km/h 6.0mph /  9.7km/h 44% 0.00in /  0mm meteobridge W/m2
10:36 63.1 °F /  17.3 °C 40.8 °F /  4.9 °C 30.06in /  1017.8hPa NNE 4.0mph /  6.4km/h 7.0mph /  11.3km/h 44% 0.00in /  0mm meteobridge W/m2
10:43 63.5 °F /  17.5 °C 40.6 °F /  4.8 °C 30.06in /  1017.8hPa NNE 2.0mph /  3.2km/h 7.0mph /  11.3km/h 43% 0.00in /  0mm meteobridge W/m2
10:49 63.5 °F /  17.5 °C 40.6 °F /  4.8 °C 30.06in /  1017.8hPa North 6.0mph /  9.7km/h 9.0mph /  14.5km/h 43% 0.00in /  0mm meteobridge W/m2
10:55 64.0 °F /  17.8 °C 41.2 °F /  5.1 °C 30.06in /  1017.8hPa NNW 4.9mph /  7.9km/h 9.0mph /  14.5km/h 43% 0.00in /  0mm meteobridge W/m2
11:01 64.0 °F /  17.8 °C 41.2 °F /  5.1 °C 30.06in /  1017.8hPa North 6.0mph /  9.7km/h 8.0mph /  12.9km/h 43% 0.00in /  0mm meteobridge W/m2
11:07 64.2 °F /  17.9 °C 41.2 °F /  5.1 °C 30.06in /  1017.8hPa North 2.9mph /  4.7km/h 7.0mph /  11.3km/h 43% 0.00in /  0mm meteobridge W/m2
11:13 64.6 °F /  18.1 °C 41.0 °F /  5 °C 30.05in /  1017.5hPa North 6.0mph /  9.7km/h 7.0mph /  11.3km/h 42% 0.00in /  0mm meteobridge W/m2
11:19 64.8 °F /  18.2 °C 41.7 °F /  5.4 °C 30.05in /  1017.5hPa NNW 2.9mph /  4.7km/h 10.0mph /  16.1km/h 43% 0.00in /  0mm meteobridge W/m2
11:25 65.3 °F /  18.5 °C 41.5 °F /  5.3 °C 30.05in /  1017.5hPa North 4.0mph /  6.4km/h 9.0mph /  14.5km/h 42% 0.00in /  0mm meteobridge W/m2
11:32 65.5 °F /  18.6 °C 41.2 °F /  5.1 °C 30.04in /  1017.2hPa NNE 0.9mph /  1.4km/h 4.0mph /  6.4km/h 41% 0.00in /  0mm meteobridge W/m2
11:38 65.3 °F /  18.5 °C 41.5 °F /  5.3 °C 30.03in /  1016.8hPa East 0.9mph /  1.4km/h 9.0mph /  14.5km/h 42% 0.00in /  0mm meteobridge W/m2
11:44 66.4 °F /  19.1 °C 42.6 °F /  5.9 °C 30.03in /  1016.8hPa NE 4.0mph /  6.4km/h 12.0mph /  19.3km/h 42% 0.00in /  0mm meteobridge W/m2
11:50 66.6 °F /  19.2 °C 42.1 °F /  5.6 °C 30.02in /  1016.5hPa NNE 13.0mph /  20.9km/h 13.0mph /  20.9km/h 41% 0.00in /  0mm meteobridge W/m2
11:56 66.6 °F /  19.2 °C 42.1 °F /  5.6 °C 30.02in /  1016.5hPa NE 2.9mph /  4.7km/h 12.0mph /  19.3km/h 41% 0.00in /  0mm meteobridge W/m2
12:02 66.7 °F /  19.3 °C 42.3 °F /  5.7 °C 30.02in /  1016.5hPa NE 4.9mph /  7.9km/h 10.0mph /  16.1km/h 41% 0.00in /  0mm meteobridge W/m2
12:09 67.1 °F /  19.5 °C 42.6 °F /  5.9 °C 30.02in /  1016.5hPa NNE 10.1mph /  16.3km/h 11.0mph /  17.7km/h 41% 0.00in /  0mm meteobridge W/m2
12:15 67.3 °F /  19.6 °C 42.8 °F /  6 °C 30.02in /  1016.5hPa ENE 4.9mph /  7.9km/h 10.0mph /  16.1km/h 41% 0.00in /  0mm meteobridge W/m2
12:21 67.5 °F /  19.7 °C 43.0 °F /  6.1 °C 30.01in /  1016.1hPa North 4.0mph /  6.4km/h 6.0mph /  9.7km/h 41% 0.00in /  0mm meteobridge W/m2
12:27 68.7 °F /  20.4 °C 42.1 °F /  5.6 °C 30.01in /  1016.1hPa East 6.9mph /  11.1km/h 12.0mph /  19.3km/h 38% 0.00in /  0mm meteobridge W/m2
12:33 67.8 °F /  19.9 °C 41.4 °F /  5.2 °C 30.01in /  1016.1hPa NNE 6.9mph /  11.1km/h 14.0mph /  22.5km/h 38% 0.00in /  0mm meteobridge W/m2
12:39 66.6 °F /  19.2 °C 40.8 °F /  4.9 °C 30.01in /  1016.1hPa NNE 6.9mph /  11.1km/h 14.0mph /  22.5km/h 39% 0.00in /  0mm meteobridge W/m2
12:45 67.3 °F /  19.6 °C 41.5 °F /  5.3 °C 30.01in /  1016.1hPa NE 6.0mph /  9.7km/h 7.0mph /  11.3km/h 39% 0.00in /  0mm meteobridge W/m2
12:52 67.3 °F /  19.6 °C 40.1 °F /  4.5 °C 30.00in /  1015.8hPa NE 4.0mph /  6.4km/h 5.0mph /  8km/h 37% 0.00in /  0mm meteobridge W/m2
12:58 68.2 °F /  20.1 °C 42.3 °F /  5.7 °C 30.00in /  1015.8hPa SE 2.0mph /  3.2km/h 4.0mph /  6.4km/h 39% 0.00in /  0mm meteobridge W/m2
13:04 68.7 °F /  20.4 °C 40.6 °F /  4.8 °C 29.99in /  1015.5hPa SSE 4.9mph /  7.9km/h 6.0mph /  9.7km/h 36% 0.00in /  0mm meteobridge W/m2
13:10 69.4 °F /  20.8 °C 41.4 °F /  5.2 °C 29.99in /  1015.5hPa Calm   4.0mph /  6.4km/h 36% 0.00in /  0mm meteobridge W/m2
13:16 70.0 °F /  21.1 °C 41.0 °F /  5 °C 29.99in /  1015.5hPa NNE 4.0mph /  6.4km/h 7.0mph /  11.3km/h 35% 0.00in /  0mm meteobridge W/m2
13:22 70.2 °F /  21.2 °C 40.5 °F /  4.7 °C 29.99in /  1015.5hPa Calm   6.0mph /  9.7km/h 34% 0.00in /  0mm meteobridge W/m2
13:28 70.0 °F /  21.1 °C 41.0 °F /  5 °C 29.99in /  1015.5hPa Calm   4.0mph /  6.4km/h 35% 0.00in /  0mm meteobridge W/m2
13:35 70.0 °F /  21.1 °C 41.7 °F /  5.4 °C 29.98in /  1015.1hPa Calm   5.0mph /  8km/h 36% 0.00in /  0mm meteobridge W/m2
13:41 70.7 °F /  21.5 °C 41.7 °F /  5.4 °C 29.98in /  1015.1hPa Calm   3.0mph /  4.8km/h 35% 0.00in /  0mm meteobridge W/m2
13:47 70.0 °F /  21.1 °C 41.7 °F /  5.4 °C 29.98in /  1015.1hPa NNW 8.9mph /  14.3km/h 11.0mph /  17.7km/h 36% 0.00in /  0mm meteobridge W/m2
13:53 68.7 °F /  20.4 °C 41.4 °F /  5.2 °C 29.98in /  1015.1hPa ESE 0.9mph /  1.4km/h 3.0mph /  4.8km/h 37% 0.00in /  0mm meteobridge W/m2
13:59 69.4 °F /  20.8 °C 42.1 °F /  5.6 °C 29.98in /  1015.1hPa ENE 0.9mph /  1.4km/h 6.0mph /  9.7km/h 37% 0.00in /  0mm meteobridge W/m2
14:05 69.6 °F /  20.9 °C 41.5 °F /  5.3 °C 29.97in /  1014.8hPa North 2.9mph /  4.7km/h 4.0mph /  6.4km/h 36% 0.00in /  0mm meteobridge W/m2
14:11 70.2 °F /  21.2 °C 41.9 °F /  5.5 °C 29.97in /  1014.8hPa SE 0.9mph /  1.4km/h 1.0mph /  1.6km/h 36% 0.00in /  0mm meteobridge W/m2
14:17 70.9 °F /  21.6 °C 42.6 °F /  5.9 °C 29.97in /  1014.8hPa SE 2.0mph /  3.2km/h 3.0mph /  4.8km/h 36% 0.00in /  0mm meteobridge W/m2
14:23 71.2 °F /  21.8 °C 42.3 °F /  5.7 °C 29.96in /  1014.4hPa Calm   2.0mph /  3.2km/h 35% 0.00in /  0mm meteobridge W/m2
14:29 71.4 °F /  21.9 °C 42.3 °F /  5.7 °C 29.96in /  1014.4hPa Calm   4.0mph /  6.4km/h 35% 0.00in /  0mm meteobridge W/m2
14:35 72.0 °F /  22.2 °C 42.1 °F /  5.6 °C 29.96in /  1014.4hPa North 2.9mph /  4.7km/h 6.0mph /  9.7km/h 34% 0.00in /  0mm meteobridge W/m2
14:42 70.2 °F /  21.2 °C 40.5 °F /  4.7 °C 29.96in /  1014.4hPa NE 2.9mph /  4.7km/h 6.0mph /  9.7km/h 34% 0.00in /  0mm meteobridge W/m2
14:48 69.8 °F /  21 °C 41.7 °F /  5.4 °C 29.96in /  1014.4hPa SSE 0.9mph /  1.4km/h 4.0mph /  6.4km/h 36% 0.00in /  0mm meteobridge W/m2
14:54 69.4 °F /  20.8 °C 40.6 °F /  4.8 °C 29.96in /  1014.4hPa North 4.0mph /  6.4km/h 6.0mph /  9.7km/h 35% 0.00in /  0mm meteobridge W/m2
15:00 69.6 °F /  20.9 °C 40.8 °F /  4.9 °C 29.95in /  1014.1hPa Calm   2.0mph /  3.2km/h 35% 0.00in /  0mm meteobridge W/m2
15:06 70.3 °F /  21.3 °C 40.6 °F /  4.8 °C 29.95in /  1014.1hPa SSE 4.0mph /  6.4km/h 7.0mph /  11.3km/h 34% 0.00in /  0mm meteobridge W/m2
15:12 70.9 °F /  21.6 °C 41.2 °F /  5.1 °C 29.95in /  1014.1hPa SSW 6.9mph /  11.1km/h 9.0mph /  14.5km/h 34% 0.00in /  0mm meteobridge W/m2
15:18 70.3 °F /  21.3 °C 40.6 °F /  4.8 °C 29.94in /  1013.8hPa South 4.9mph /  7.9km/h 10.0mph /  16.1km/h 34% 0.00in /  0mm meteobridge W/m2
15:25 69.4 °F /  20.8 °C 40.6 °F /  4.8 °C 29.94in /  1013.8hPa NNW 4.0mph /  6.4km/h 7.0mph /  11.3km/h 35% 0.00in /  0mm meteobridge W/m2
15:31 69.1 °F /  20.6 °C 40.3 °F /  4.6 °C 29.94in /  1013.8hPa Calm   7.0mph /  11.3km/h 35% 0.00in /  0mm meteobridge W/m2
15:37 69.4 °F /  20.8 °C 40.6 °F /  4.8 °C 29.94in /  1013.8hPa South 2.0mph /  3.2km/h 5.0mph /  8km/h 35% 0.00in /  0mm meteobridge W/m2
15:43 69.1 °F /  20.6 °C 40.3 °F /  4.6 °C 29.94in /  1013.8hPa SSW 0.9mph /  1.4km/h 5.0mph /  8km/h 35% 0.00in /  0mm meteobridge W/m2
15:49 69.3 °F /  20.7 °C 40.5 °F /  4.7 °C 29.94in /  1013.8hPa South 2.0mph /  3.2km/h 6.0mph /  9.7km/h 35% 0.00in /  0mm meteobridge W/m2
15:56 69.8 °F /  21 °C 41.0 °F /  5 °C 29.95in /  1014.1hPa Calm   3.0mph /  4.8km/h 35% 0.00in /  0mm meteobridge W/m2
16:02 70.5 °F /  21.4 °C 40.8 °F /  4.9 °C 29.94in /  1013.8hPa SE 0.9mph /  1.4km/h 6.0mph /  9.7km/h 34% 0.00in /  0mm meteobridge W/m2
16:08 71.1 °F /  21.7 °C 41.4 °F /  5.2 °C 29.94in /  1013.8hPa SSW 2.0mph /  3.2km/h 5.0mph /  8km/h 34% 0.00in /  0mm meteobridge W/m2
16:14 70.5 °F /  21.4 °C 40.1 °F /  4.5 °C 29.95in /  1014.1hPa South 2.0mph /  3.2km/h 4.0mph /  6.4km/h 33% 0.00in /  0mm meteobridge W/m2
16:20 69.4 °F /  20.8 °C 40.6 °F /  4.8 °C 29.95in /  1014.1hPa SSW 0.9mph /  1.4km/h 2.0mph /  3.2km/h 35% 0.00in /  0mm meteobridge W/m2
16:27 69.6 °F /  20.9 °C 40.8 °F /  4.9 °C 29.94in /  1013.8hPa ENE 2.0mph /  3.2km/h 5.0mph /  8km/h 35% 0.00in /  0mm meteobridge W/m2
16:32 70.0 °F /  21.1 °C 41.0 °F /  5 °C 29.95in /  1014.1hPa ENE 2.9mph /  4.7km/h 3.0mph /  4.8km/h 35% 0.00in /  0mm meteobridge W/m2
Regenstein, Windhoek, Namibia
Compliments of Weather Underground - 2.25 mb